Time;durP1;ratioP1;P1;durP2;ratioP2;P2;SDS_P1;SDS_P2;PMS_P1;PMS_P2;Temp;Humidity;BMP_temperature;BMP_pressure;BME280_temperature;BME280_humidity;BME280_pressure;Samples;Min_cycle;Max_cycle;Signal;HPM_P1;HPM_P2
2022/07/19 00:00:08;;;;;;;6.75;4.28;;;;;;;18.06;50.50;94392.03;4972138;28;20046;-78
2022/07/19 00:02:36;;;;;;;6.93;4.60;;;;;;;18.01;50.89;94389.84;4981294;28;20835;-77
2022/07/19 00:05:04;;;;;;;8.17;6.10;;;;;;;17.94;51.11;94391.63;4986815;28;20049;-78
2022/07/19 00:07:30;;;;;;;9.35;6.78;;;;;;;18.00;50.99;94383.50;4971726;28;20043;-74
2022/07/19 00:09:57;;;;;;;11.10;6.57;;;;;;;18.12;50.62;94382.66;4982329;28;20058;-79
2022/07/19 00:12:24;;;;;;;8.23;5.40;;;;;;;18.00;50.70;94386.28;4976463;28;20039;-78
2022/07/19 00:14:51;;;;;;;6.95;4.80;;;;;;;17.89;51.45;94394.25;4988607;28;20046;-73
2022/07/19 00:17:17;;;;;;;7.77;4.90;;;;;;;17.93;51.25;94392.88;4985029;28;20050;-76
2022/07/19 00:19:44;;;;;;;6.63;4.70;;;;;;;17.89;51.11;94391.47;4977377;28;20049;-77
2022/07/19 00:22:13;;;;;;;7.43;4.60;;;;;;;17.72;51.70;94393.59;4982980;28;20042;-76
2022/07/19 00:24:40;;;;;;;6.72;4.90;;;;;;;17.71;51.89;94392.06;4971844;28;20047;-78
2022/07/19 00:27:07;;;;;;;8.23;4.60;;;;;;;17.66;52.38;94396.19;4971381;28;20050;-79
2022/07/19 00:29:34;;;;;;;8.70;5.27;;;;;;;17.66;52.37;94392.63;4987402;28;20660;-78
2022/07/19 00:32:00;;;;;;;8.88;4.70;;;;;;;17.66;52.05;94396.19;4990371;28;20042;-78
2022/07/19 00:34:27;;;;;;;7.95;4.93;;;;;;;17.67;52.05;94386.63;4990073;28;20050;-74
2022/07/19 00:36:54;;;;;;;8.63;5.43;;;;;;;17.70;52.14;94390.50;4986195;28;20049;-76
2022/07/19 00:39:21;;;;;;;12.98;9.88;;;;;;;17.67;52.21;94394.19;4971014;28;20050;-79
2022/07/19 00:41:47;;;;;;;15.77;7.20;;;;;;;17.30;53.08;94380.75;4974044;28;20057;-77
2022/07/19 00:44:14;;;;;;;8.98;5.50;;;;;;;17.26;53.07;94385.66;4971138;28;20069;-74
2022/07/19 00:46:41;;;;;;;7.53;5.47;;;;;;;17.27;53.00;94381.66;4988015;28;20104;-77
2022/07/19 00:49:08;;;;;;;7.50;5.45;;;;;;;17.26;52.67;94377.31;4983645;28;20054;-70
2022/07/19 00:51:39;;;;;;;9.88;5.32;;;;;;;17.12;53.21;94375.81;4976156;28;20050;-76
2022/07/19 00:54:08;;;;;;;7.00;5.67;;;;;;;17.05;53.49;94384.38;4970940;28;20061;-77
2022/07/19 00:56:37;;;;;;;7.38;5.18;;;;;;;17.03;53.28;94378.50;4970000;28;20850;-77
2022/07/19 00:59:05;;;;;;;8.25;5.10;;;;;;;16.90;54.22;94386.84;4984298;28;20050;-72
2022/07/19 01:01:32;;;;;;;7.93;4.88;;;;;;;16.82;54.65;94388.28;4972139;28;20065;-73
2022/07/19 01:04:00;;;;;;;7.85;5.20;;;;;;;16.78;54.81;94377.28;4988794;28;20057;-73
2022/07/19 01:06:27;;;;;;;8.00;5.00;;;;;;;16.72;54.99;94376.28;4976627;28;20057;-75
2022/07/19 01:08:53;;;;;;;6.65;4.90;;;;;;;16.71;54.97;94376.72;4977710;28;20409;-73
2022/07/19 01:11:20;;;;;;;10.15;6.55;;;;;;;16.71;54.88;94380.28;4970269;28;20388;-77
2022/07/19 01:13:48;;;;;;;9.60;6.50;;;;;;;16.68;55.19;94377.59;4981554;28;20046;-77
2022/07/19 01:16:16;;;;;;;7.93;5.43;;;;;;;16.37;56.09;94381.69;4986963;28;20568;-75
2022/07/19 01:18:43;;;;;;;8.30;5.30;;;;;;;16.50;55.95;94376.19;4984180;28;20065;-76
2022/07/19 01:21:21;;;;;;;7.47;5.15;;;;;;;16.56;55.48;94363.31;4974571;28;20045;-76
2022/07/19 01:23:49;;;;;;;10.15;5.30;;;;;;;16.55;55.59;94369.31;4989891;28;20050;-77
2022/07/19 01:26:17;;;;;;;7.32;5.10;;;;;;;16.61;55.11;94364.00;4971475;28;20043;-77
2022/07/19 01:28:45;;;;;;;7.88;5.10;;;;;;;16.59;54.98;94364.41;4970360;28;20451;-73
2022/07/19 01:31:12;;;;;;;7.30;5.30;;;;;;;16.68;54.69;94364.53;4988634;28;20054;-78
2022/07/19 01:33:43;;;;;;;6.97;5.05;;;;;;;16.46;55.34;94358.88;4989748;28;20044;-76
2022/07/19 01:36:10;;;;;;;9.57;5.05;;;;;;;15.96;57.43;94366.69;4993751;28;20515;-76
2022/07/19 01:38:38;;;;;;;8.95;5.40;;;;;;;15.85;58.04;94363.44;4975837;28;20403;-76
2022/07/19 01:41:06;;;;;;;7.30;5.32;;;;;;;15.92;57.92;94359.72;4973020;28;20043;-72
2022/07/19 01:43:33;;;;;;;7.83;5.10;;;;;;;16.07;57.37;94358.06;4973896;28;20454;-75
2022/07/19 01:46:00;;;;;;;6.53;4.93;;;;;;;16.13;57.00;94359.06;4974259;28;20045;-78
2022/07/19 01:48:27;;;;;;;7.32;5.50;;;;;;;16.14;56.91;94357.09;4987301;28;20046;-78
2022/07/19 01:50:54;;;;;;;7.00;5.10;;;;;;;16.13;56.88;94350.75;4973758;28;20039;-76
2022/07/19 01:53:21;;;;;;;8.95;5.25;;;;;;;16.05;56.75;94348.66;4987562;28;20081;-78
2022/07/19 01:55:47;;;;;;;7.07;5.13;;;;;;;16.07;56.78;94352.53;4974017;28;20061;-72
2022/07/19 01:58:14;;;;;;;7.57;5.00;;;;;;;16.08;56.90;94359.63;4973280;28;20508;-76
2022/07/19 02:00:41;;;;;;;7.25;5.40;;;;;;;16.04;56.84;94353.41;4973942;28;20042;-78
2022/07/19 02:03:08;;;;;;;8.50;5.00;;;;;;;16.07;56.75;94346.22;4988153;28;20045;-78
2022/07/19 02:05:34;;;;;;;7.30;5.15;;;;;;;16.05;56.94;94338.34;4979635;28;20799;-74
2022/07/19 02:08:02;;;;;;;6.97;5.40;;;;;;;16.01;56.85;94331.38;4973691;28;20057;-77
2022/07/19 02:10:29;;;;;;;7.55;5.25;;;;;;;15.90;56.90;94329.69;4973629;28;20484;-77
2022/07/19 02:12:56;;;;;;;7.22;5.25;;;;;;;16.00;56.58;94325.06;4980211;28;20398;-78
2022/07/19 02:15:23;;;;;;;7.78;5.30;;;;;;;15.97;56.86;94318.41;4992840;28;20046;-78
2022/07/19 02:17:50;;;;;;;7.47;5.32;;;;;;;15.93;56.67;94314.97;4989478;28;20050;-78
2022/07/19 02:20:17;;;;;;;7.57;4.80;;;;;;;15.70;57.47;94323.53;4991962;28;20042;-77
2022/07/19 02:22:44;;;;;;;7.85;5.10;;;;;;;15.78;57.30;94322.16;4986271;28;20038;-77
2022/07/19 02:25:11;;;;;;;9.27;5.38;;;;;;;15.57;58.49;94317.94;4981825;28;20046;-74
2022/07/19 02:27:38;;;;;;;7.53;5.25;;;;;;;15.52;58.47;94324.81;4982683;28;20065;-76
2022/07/19 02:30:05;;;;;;;7.45;5.30;;;;;;;15.40;58.96;94319.25;4976120;28;20038;-78
2022/07/19 02:32:32;;;;;;;9.17;5.57;;;;;;;15.50;58.66;94318.16;4983644;28;20053;-73
2022/07/19 02:34:59;;;;;;;8.18;5.50;;;;;;;15.43;59.08;94319.13;4986718;28;20045;-74
2022/07/19 02:37:25;;;;;;;8.00;5.50;;;;;;;15.15;59.85;94317.91;4985817;28;20043;-76
2022/07/19 02:39:52;;;;;;;7.82;5.78;;;;;;;15.18;59.83;94328.88;4982865;28;20454;-74
2022/07/19 02:42:19;;;;;;;8.98;5.97;;;;;;;15.20;59.76;94325.69;4973840;28;20440;-77
2022/07/19 02:44:46;;;;;;;8.90;5.80;;;;;;;15.24;59.51;94317.28;4973218;28;20046;-74
2022/07/19 02:47:12;;;;;;;7.90;5.60;;;;;;;15.25;59.40;94321.59;4975983;28;20043;-77
2022/07/19 02:49:39;;;;;;;8.23;5.90;;;;;;;15.27;59.51;94313.66;4982110;28;20049;-74
2022/07/19 02:52:06;;;;;;;7.22;5.28;;;;;;;15.31;59.15;94311.56;4971536;28;20054;-76
2022/07/19 02:54:32;;;;;;;8.15;5.75;;;;;;;15.24;59.12;94315.31;4972623;28;20055;-77
2022/07/19 02:56:59;;;;;;;8.33;5.67;;;;;;;15.20;59.45;94316.63;4972441;28;20052;-79
2022/07/19 02:59:26;;;;;;;8.93;5.78;;;;;;;15.18;59.72;94317.03;4972686;28;20046;-78
2022/07/19 03:01:53;;;;;;;7.57;5.40;;;;;;;15.14;60.24;94322.66;4977179;28;20085;-77
2022/07/19 03:04:19;;;;;;;8.32;6.00;;;;;;;14.91;60.82;94306.28;4990155;28;20446;-77
2022/07/19 03:06:46;;;;;;;9.15;5.65;;;;;;;14.76;61.33;94305.88;4972857;28;20053;-75
2022/07/19 03:09:13;;;;;;;9.33;6.03;;;;;;;14.70;61.62;94313.91;4972519;28;20043;-77
2022/07/19 03:11:40;;;;;;;8.50;5.82;;;;;;;14.73;61.36;94309.53;4972744;28;20034;-76
2022/07/19 03:14:07;;;;;;;8.93;5.75;;;;;;;14.72;61.62;94303.19;4972099;28;20046;-76
2022/07/19 03:16:34;;;;;;;8.90;5.47;;;;;;;14.89;61.11;94301.22;4971855;28;20733;-73
2022/07/19 03:19:00;;;;;;;8.05;5.40;;;;;;;14.89;61.02;94301.22;4976725;28;20438;-75
2022/07/19 03:21:27;;;;;;;8.07;5.70;;;;;;;14.96;60.65;94305.78;4991627;28;20046;-75
2022/07/19 03:23:54;;;;;;;8.65;6.03;;;;;;;15.09;60.26;94306.63;4981964;28;20053;-76
2022/07/19 03:26:21;;;;;;;9.07;5.80;;;;;;;15.08;60.00;94318.09;4970476;28;20047;-77
2022/07/19 03:28:47;;;;;;;8.35;5.97;;;;;;;15.06;59.95;94317.75;4972733;28;20049;-77
2022/07/19 03:31:14;;;;;;;8.90;5.93;;;;;;;14.55;61.63;94313.47;4985036;28;20069;-74
2022/07/19 03:33:41;;;;;;;8.27;5.43;;;;;;;14.58;61.51;94309.09;4978017;28;20055;-76
2022/07/19 03:36:08;;;;;;;9.43;6.20;;;;;;;14.48;62.30;94318.38;4991391;28;20046;-77
2022/07/19 03:38:35;;;;;;;10.20;6.20;;;;;;;14.42;62.52;94312.59;4995455;28;20068;-77
2022/07/19 03:41:01;;;;;;;9.13;6.60;;;;;;;14.37;62.86;94308.38;4991262;28;20449;-76
2022/07/19 03:43:28;;;;;;;10.18;6.25;;;;;;;14.30;63.59;94308.53;4990990;28;20077;-76
2022/07/19 03:45:55;;;;;;;8.43;6.50;;;;;;;14.42;62.97;94309.81;4991273;28;20048;-75
2022/07/19 03:48:22;;;;;;;11.00;5.90;;;;;;;14.37;62.68;94311.13;5001752;28;20406;-76
2022/07/19 03:50:49;;;;;;;7.97;6.32;;;;;;;14.46;62.70;94313.28;5036434;28;20049;-76
2022/07/19 03:53:16;;;;;;;9.77;6.38;;;;;;;14.07;63.63;94303.16;5005590;28;20039;-76
2022/07/19 03:55:43;;;;;;;9.77;6.35;;;;;;;14.18;63.63;94311.97;4989868;28;20044;-72
2022/07/19 03:58:09;;;;;;;13.10;6.97;;;;;;;14.12;63.81;94305.41;5005065;28;20042;-75
2022/07/19 04:00:36;;;;;;;11.02;6.50;;;;;;;14.14;63.68;94311.25;5010810;28;20513;-75
2022/07/19 04:03:03;;;;;;;9.13;6.57;;;;;;;14.23;63.55;94305.16;5022343;28;20049;-73
2022/07/19 04:05:30;;;;;;;12.48;6.80;;;;;;;14.20;63.48;94309.53;5010429;28;20042;-76
2022/07/19 04:07:57;;;;;;;10.10;6.72;;;;;;;14.09;63.88;94317.31;4996137;28;20042;-75
2022/07/19 04:10:24;;;;;;;11.07;6.93;;;;;;;14.07;63.92;94314.97;4997653;28;20049;-74
2022/07/19 04:12:51;;;;;;;23.13;7.45;;;;;;;14.10;64.20;94311.34;5010670;28;20053;-70
2022/07/19 04:15:18;;;;;;;10.07;6.88;;;;;;;13.94;64.66;94320.38;5010255;28;20049;-75
2022/07/19 04:17:45;;;;;;;13.32;7.20;;;;;;;13.99;64.47;94324.63;5010598;28;20041;-76
2022/07/19 04:20:12;;;;;;;11.15;7.05;;;;;;;14.14;63.91;94320.31;5009852;28;20034;-74
2022/07/19 04:22:39;;;;;;;9.27;6.67;;;;;;;14.25;63.71;94308.28;5025937;28;20048;-74
2022/07/19 04:25:06;;;;;;;13.20;6.82;;;;;;;13.87;65.17;94317.78;5010573;28;20410;-73
2022/07/19 04:27:33;;;;;;;9.95;6.60;;;;;;;14.24;63.81;94306.72;5009442;28;20108;-70
2022/07/19 04:30:00;;;;;;;12.10;6.95;;;;;;;14.28;63.32;94323.97;5008746;28;20060;-75
2022/07/19 04:32:28;;;;;;;8.65;6.35;;;;;;;14.42;62.99;94309.06;5009736;28;20434;-71
2022/07/19 04:34:56;;;;;;;8.83;6.60;;;;;;;14.26;63.39;94318.88;5012094;28;20402;-74
2022/07/19 04:37:23;;;;;;;9.27;6.30;;;;;;;14.06;64.25;94318.16;5009843;28;20068;-69
2022/07/19 04:39:50;;;;;;;9.40;6.60;;;;;;;13.93;65.16;94323.56;5010226;28;20514;-71
2022/07/19 04:42:17;;;;;;;9.88;6.53;;;;;;;13.91;65.00;94320.47;5009150;28;20048;-72
2022/07/19 04:44:44;;;;;;;9.88;6.65;;;;;;;14.00;64.90;94317.88;5010037;28;20076;-74
2022/07/19 04:47:10;;;;;;;11.33;6.97;;;;;;;14.17;64.21;94318.69;5009517;28;20046;-72
2022/07/19 04:49:37;;;;;;;9.85;6.75;;;;;;;14.33;63.89;94312.41;5009730;28;20096;-69
2022/07/19 04:52:05;;;;;;;9.32;6.38;;;;;;;14.58;62.79;94317.38;5010039;28;20040;-72
2022/07/19 04:54:32;;;;;;;13.00;7.47;;;;;;;14.37;63.25;94322.16;5008124;28;20048;-73
2022/07/19 04:56:59;;;;;;;10.20;6.78;;;;;;;14.29;63.93;94323.53;5009257;28;20046;-71
2022/07/19 04:59:26;;;;;;;12.60;7.10;;;;;;;14.31;64.22;94315.59;5009515;28;20107;-70
2022/07/19 05:01:52;;;;;;;9.23;6.93;;;;;;;14.41;63.95;94318.53;5014258;28;20044;-68
2022/07/19 05:04:19;;;;;;;11.50;6.95;;;;;;;14.41;64.24;94315.78;5016444;28;20048;-69
2022/07/19 05:06:46;;;;;;;9.70;7.07;;;;;;;14.32;64.48;94306.09;5008980;28;20072;-71
2022/07/19 05:09:13;;;;;;;10.88;7.57;;;;;;;14.28;64.52;94310.94;5009052;28;20038;-68
2022/07/19 05:11:44;;;;;;;11.53;8.10;;;;;;;14.20;65.40;94312.31;5009840;28;20088;-68
2022/07/19 05:14:10;;;;;;;11.55;7.43;;;;;;;14.40;64.71;94317.75;5008788;28;20052;-69
2022/07/19 05:16:37;;;;;;;12.43;7.85;;;;;;;14.66;63.97;94304.16;4996220;28;20046;-70
2022/07/19 05:19:04;;;;;;;13.13;8.10;;;;;;;14.69;64.31;94311.56;4995927;28;20049;-70
2022/07/19 05:21:31;;;;;;;13.10;7.82;;;;;;;14.96;63.28;94306.53;4999377;28;20081;-68
2022/07/19 05:23:58;;;;;;;10.37;7.30;;;;;;;15.28;62.55;94307.69;5006198;28;20042;-69
2022/07/19 05:26:25;;;;;;;11.30;7.50;;;;;;;15.31;62.44;94308.78;5009123;28;20049;-68
2022/07/19 05:28:52;;;;;;;10.40;7.40;;;;;;;15.57;62.01;94309.66;5009171;28;20046;-70
2022/07/19 05:31:18;;;;;;;11.68;7.47;;;;;;;15.51;62.14;94312.22;5007619;28;20368;-70
2022/07/19 05:33:45;;;;;;;9.88;7.60;;;;;;;15.66;62.11;94320.09;5013767;28;20639;-69
2022/07/19 05:36:12;;;;;;;10.53;7.57;;;;;;;16.13;60.79;94314.75;4991329;28;20099;-69
2022/07/19 05:38:39;;;;;;;9.85;7.32;;;;;;;17.89;55.92;94310.94;5009748;28;20054;-68
2022/07/19 05:41:07;;;;;;;8.68;6.82;;;;;;;21.45;46.27;94290.59;5009205;28;20052;-71
2022/07/19 05:43:35;;;;;;;15.35;9.90;;;;;;;22.97;42.92;94290.38;5008584;28;20818;-64
2022/07/19 05:46:03;;;;;;;11.15;7.07;;;;;;;21.69;45.47;94293.34;5008673;28;20044;-65
2022/07/19 05:48:30;;;;;;;9.13;6.60;;;;;;;22.77;43.00;94287.53;5006859;28;20046;-65
2022/07/19 05:50:58;;;;;;;10.80;6.50;;;;;;;23.86;40.31;94289.97;5008191;28;20053;-73
2022/07/19 05:53:25;;;;;;;8.80;6.25;;;;;;;25.22;37.41;94294.63;5008087;28;20042;-67
2022/07/19 05:55:53;;;;;;;9.00;6.32;;;;;;;26.11;36.14;94287.81;5008804;28;20594;-67
2022/07/19 05:58:20;;;;;;;8.63;6.40;;;;;;;26.00;36.83;94287.81;5007938;28;20050;-69
2022/07/19 06:03:32;;;;;;;8.77;6.35;;;;;;;29.20;31.15;94289.94;5014907;28;20093;-68
2022/07/19 06:05:59;;;;;;;9.70;5.95;;;;;;;29.25;30.77;94279.84;5012619;28;20054;-65
2022/07/19 06:08:26;;;;;;;10.65;5.75;;;;;;;28.85;31.04;94282.28;4994990;28;20060;-66
2022/07/19 06:10:52;;;;;;;13.38;6.03;;;;;;;28.46;30.92;94280.53;5008964;28;20046;-69
2022/07/19 06:13:20;;;;;;;8.77;5.77;;;;;;;29.42;29.94;94286.09;5008889;28;20044;-66
2022/07/19 06:15:47;;;;;;;10.70;5.40;;;;;;;27.52;32.51;94286.16;5009316;28;20068;-66
2022/07/19 06:18:13;;;;;;;10.93;5.30;;;;;;;28.03;32.23;94281.06;5012041;28;20064;-70
2022/07/19 06:20:41;;;;;;;6.75;4.78;;;;;;;29.55;29.32;94284.66;5012895;28;20449;-65
2022/07/19 06:23:08;;;;;;;9.85;4.88;;;;;;;31.58;26.76;94270.94;4998551;28;20412;-66
2022/07/19 06:25:34;;;;;;;7.30;4.53;;;;;;;31.68;26.46;94268.44;5000428;28;21759;-65
2022/07/19 06:28:02;;;;;;;8.50;4.60;;;;;;;33.83;23.66;94266.84;5009638;28;20076;-70
2022/07/19 06:30:29;;;;;;;9.52;4.45;;;;;;;34.58;23.05;94269.78;5012230;28;20046;-70
2022/07/19 06:32:55;;;;;;;7.00;4.60;;;;;;;33.75;23.38;94266.06;5012708;28;20123;-66
2022/07/19 06:35:22;;;;;;;7.95;4.47;;;;;;;34.05;23.42;94270.34;5019112;28;20505;-65
2022/07/19 06:37:49;;;;;;;6.93;4.60;;;;;;;33.93;23.68;94279.22;5012506;28;20053;-66
2022/07/19 06:40:16;;;;;;;7.10;4.30;;;;;;;32.12;26.32;94271.66;5011668;28;20142;-67
2022/07/19 06:42:42;;;;;;;7.28;4.30;;;;;;;33.86;23.88;94276.34;5010848;28;20042;-66
2022/07/19 06:45:10;;;;;;;7.57;4.35;;;;;;;35.25;22.53;94277.47;5011701;28;20041;-65
2022/07/19 06:47:37;;;;;;;5.30;3.70;;;;;;;34.80;22.88;94271.16;5012384;28;20048;-66
2022/07/19 06:50:04;;;;;;;6.00;3.90;;;;;;;35.12;22.30;94278.41;5011729;28;20064;-66
2022/07/19 06:52:51;;;;;;;6.53;3.83;;;;;;;33.49;24.44;94264.19;5011361;28;20449;-66
2022/07/19 06:55:18;;;;;;;7.65;3.50;;;;;;;35.56;21.18;94269.63;5008447;28;20042;-66
2022/07/19 06:57:46;;;;;;;3.13;2.20;;;;;;;36.02;17.66;94260.94;5002704;28;20380;-67
2022/07/19 07:00:13;;;;;;;5.97;1.90;;;;;;;38.24;13.43;94259.78;5009530;28;20046;-66
2022/07/19 07:02:41;;;;;;;4.60;2.00;;;;;;;38.47;13.33;94265.94;5012582;28;20069;-70
2022/07/19 07:05:09;;;;;;;3.78;2.10;;;;;;;39.99;12.36;94274.09;5011499;28;20449;-70
2022/07/19 07:07:36;;;;;;;3.20;1.80;;;;;;;36.83;14.76;94272.34;5011064;28;20460;-68
2022/07/19 07:10:06;;;;;;;3.03;1.80;;;;;;;37.15;14.34;94271.56;5011455;28;20034;-67
2022/07/19 07:12:37;;;;;;;4.43;1.98;;;;;;;34.08;16.43;94272.81;5010981;28;20167;-67
2022/07/19 07:15:05;;;;;;;3.87;2.03;;;;;;;34.75;16.38;94278.56;5011438;28;20057;-68
2022/07/19 07:17:33;;;;;;;4.32;1.90;;;;;;;33.99;16.42;94270.53;4997829;28;20112;-68
2022/07/19 07:20:00;;;;;;;4.20;2.00;;;;;;;34.22;16.72;94279.16;4998400;28;20038;-70
2022/07/19 07:22:27;;;;;;;3.20;2.00;;;;;;;35.23;15.76;94277.28;5009767;28;20144;-67
2022/07/19 07:24:53;;;;;;;3.72;2.00;;;;;;;34.47;15.96;94270.91;5011797;28;20186;-69
2022/07/19 07:27:20;;;;;;;3.67;1.90;;;;;;;33.25;17.30;94276.72;5010221;28;20045;-67
2022/07/19 07:29:49;;;;;;;3.90;1.98;;;;;;;33.25;17.04;94263.25;5010965;28;20049;-67
2022/07/19 07:32:17;;;;;;;3.65;1.98;;;;;;;34.35;16.72;94266.84;5010957;28;20050;-67
2022/07/19 07:34:44;;;;;;;5.45;2.10;;;;;;;32.45;18.27;94267.25;5018846;28;20046;-68
2022/07/19 07:37:11;;;;;;;3.28;2.05;;;;;;;33.44;17.47;94263.00;5002351;28;20112;-68
2022/07/19 07:39:38;;;;;;;2.80;2.10;;;;;;;31.77;18.91;94253.03;5006443;28;20046;-68
2022/07/19 07:42:06;;;;;;;5.43;2.30;;;;;;;34.74;16.41;94247.78;5011092;28;20034;-69
2022/07/19 07:44:39;;;;;;;5.57;2.10;;;;;;;37.46;14.43;94236.16;5010607;28;20590;-67
2022/07/19 07:47:10;;;;;;;3.25;2.00;;;;;;;37.25;14.48;94233.69;4993786;28;20076;-68
2022/07/19 07:49:37;;;;;;;4.47;2.05;;;;;;;33.50;17.67;94246.53;5010346;28;20789;-67
2022/07/19 07:52:05;;;;;;;4.43;2.20;;;;;;;32.91;17.94;94241.38;5010902;28;20494;-68
2022/07/19 07:54:32;;;;;;;4.20;1.98;;;;;;;36.69;14.38;94239.66;5010643;28;20041;-68
2022/07/19 07:56:59;;;;;;;6.75;2.40;;;;;;;35.61;15.52;94245.81;5009396;28;20187;-72
2022/07/19 07:59:26;;;;;;;4.75;2.28;;;;;;;34.34;15.95;94246.16;5010386;28;20103;-68
2022/07/19 08:01:52;;;;;;;5.97;2.35;;;;;;;33.04;17.56;94235.59;5014492;28;20067;-68
2022/07/19 08:04:25;;;;;;;3.50;2.30;;;;;;;37.69;13.75;94236.72;5015408;28;20053;-71
2022/07/19 08:06:52;;;;;;;3.22;2.20;;;;;;;35.51;15.44;94236.31;5010880;28;20107;-71
2022/07/19 08:09:19;;;;;;;3.20;2.03;;;;;;;37.05;13.80;94232.72;5010119;28;20060;-69
2022/07/19 08:11:46;;;;;;;4.55;2.10;;;;;;;36.00;14.15;94226.47;5010752;28;20042;-68
2022/07/19 08:14:13;;;;;;;3.75;2.17;;;;;;;39.48;12.27;94227.88;5009831;28;20769;-68
2022/07/19 08:16:39;;;;;;;3.97;1.93;;;;;;;36.29;14.75;94231.88;5010642;28;20033;-67
2022/07/19 08:19:06;;;;;;;4.85;2.05;;;;;;;32.73;17.15;94231.00;4995279;28;20046;-70
2022/07/19 08:21:33;;;;;;;5.97;2.25;;;;;;;29.70;19.89;94236.91;5010205;28;20042;-68
2022/07/19 08:24:00;;;;;;;6.40;2.58;;;;;;;28.99;20.91;94233.06;5010775;28;20050;-68
2022/07/19 08:26:27;;;;;;;3.97;2.58;;;;;;;31.75;17.99;94222.34;5010005;28;20053;-66
2022/07/19 08:28:54;;;;;;;4.43;2.60;;;;;;;33.01;16.94;94225.34;5010485;28;20049;-67
2022/07/19 08:31:21;;;;;;;4.35;2.55;;;;;;;32.98;17.47;94211.47;5009739;28;20390;-67
2022/07/19 08:33:47;;;;;;;4.47;2.53;;;;;;;30.92;18.96;94214.97;5014818;28;20055;-67
2022/07/19 08:36:14;;;;;;;7.38;2.60;;;;;;;34.87;16.48;94216.22;5014685;28;20398;-67
2022/07/19 08:38:41;;;;;;;4.35;2.40;;;;;;;37.59;13.60;94215.81;5010235;28;20041;-68
2022/07/19 08:41:08;;;;;;;5.03;2.37;;;;;;;36.53;14.55;94216.84;5010203;28;20042;-67
2022/07/19 08:43:35;;;;;;;5.15;2.40;;;;;;;37.80;13.00;94211.78;5009315;28;20183;-67
2022/07/19 08:46:03;;;;;;;4.35;2.58;;;;;;;38.87;12.44;94215.28;5010284;28;20048;-68
2022/07/19 08:48:34;;;;;;;5.05;2.40;;;;;;;38.12;13.07;94211.56;5009368;28;20046;-67
2022/07/19 08:51:12;;;;;;;5.22;2.63;;;;;;;36.09;14.78;94225.84;4997518;28;20072;-68
2022/07/19 08:53:40;;;;;;;4.73;2.70;;;;;;;34.50;15.75;94217.69;5010336;28;20056;-67
2022/07/19 08:57:56;;;;;;;5.10;2.72;;;;;;;33.79;16.64;94224.50;5002536;28;20040;-67
2022/07/19 08:58:54;;;;;;;4.93;3.00;;;;;;;35.43;14.86;94227.78;5009846;28;20785;-66
2022/07/19 09:01:22;;;;;;;5.47;3.10;;;;;;;34.16;15.77;94230.91;5004529;28;20231;-67
2022/07/19 09:04:08;;;;;;;5.85;3.28;;;;;;;34.12;15.65;94221.94;5017498;28;20045;-67
2022/07/19 09:06:48;;;;;;;8.70;3.30;;;;;;;33.97;15.65;94221.94;5008976;28;20587;-69
2022/07/19 09:09:21;;;;;;;5.43;3.00;;;;;;;33.41;16.21;94225.06;4995530;28;20048;-66
2022/07/19 09:11:51;;;;;;;7.80;3.20;;;;;;;33.79;16.12;94230.19;5010080;28;20040;-67
2022/07/19 09:14:22;;;;;;;8.48;3.30;;;;;;;34.22;15.87;94240.03;5009329;28;20068;-67
2022/07/19 09:17:11;;;;;;;5.30;3.00;;;;;;;35.44;14.82;94234.22;5010371;28;20038;-67
2022/07/19 09:19:43;;;;;;;4.33;2.87;;;;;;;34.43;14.99;94222.06;5005792;28;20120;-64
2022/07/19 09:22:15;;;;;;;7.60;3.30;;;;;;;33.94;15.53;94226.63;5000671;28;20038;-67
2022/07/19 09:24:45;;;;;;;5.45;3.25;;;;;;;33.47;15.91;94224.91;5009516;28;20053;-66
2022/07/19 09:27:15;;;;;;;6.50;3.20;;;;;;;34.31;15.94;94223.72;5009003;28;20050;-67
2022/07/19 09:29:45;;;;;;;6.32;3.30;;;;;;;34.26;15.45;94222.59;5009797;28;20064;-69
2022/07/19 09:32:17;;;;;;;6.93;3.27;;;;;;;35.40;14.39;94223.22;5008917;28;20054;-70
2022/07/19 09:34:59;;;;;;;7.80;3.53;;;;;;;35.12;14.59;94221.34;5017334;28;20407;-68
2022/07/19 09:37:30;;;;;;;5.90;3.47;;;;;;;33.59;15.71;94222.50;5009153;28;20048;-66
2022/07/19 09:39:59;;;;;;;4.60;3.00;;;;;;;35.65;14.68;94214.78;5009623;28;20066;-66
2022/07/19 09:42:35;;;;;;;7.07;3.38;;;;;;;34.81;15.18;94218.50;5008906;28;20495;-67
2022/07/19 09:45:08;;;;;;;6.70;3.40;;;;;;;32.25;16.84;94220.47;5008457;28;20049;-67
2022/07/19 09:47:37;;;;;;;5.55;3.30;;;;;;;34.48;15.05;94223.97;5008671;28;20812;-68
2022/07/19 09:50:14;;;;;;;6.07;3.33;;;;;;;35.33;14.23;94218.28;5009740;28;20048;-67
2022/07/19 09:52:42;;;;;;;6.80;3.50;;;;;;;34.62;14.15;94213.91;4998923;28;20429;-66
2022/07/19 09:55:15;;;;;;;6.78;3.55;;;;;;;35.97;14.14;94202.66;5010988;28;20042;-69
2022/07/19 09:57:44;;;;;;;6.30;3.60;;;;;;;34.01;15.49;94200.28;5013182;28;20065;-69
2022/07/19 10:00:13;;;;;;;7.40;3.50;;;;;;;34.56;14.61;94201.19;5012549;28;20042;-69
2022/07/19 10:02:55;;;;;;;8.05;3.60;;;;;;;34.87;14.54;94198.34;5023106;28;20037;-70
2022/07/19 10:05:24;;;;;;;6.70;3.45;;;;;;;34.93;13.87;94196.84;5012448;28;20057;-66
2022/07/19 10:07:51;;;;;;;6.07;3.60;;;;;;;34.38;14.11;94198.09;5013243;28;20068;-66
2022/07/19 10:10:20;;;;;;;6.53;3.57;;;;;;;34.81;13.47;94196.47;5011501;28;20050;-66
2022/07/19 10:12:50;;;;;;;7.53;3.65;;;;;;;34.64;13.17;94184.09;5000614;28;20046;-66
2022/07/19 10:15:18;;;;;;;6.95;3.92;;;;;;;34.17;14.20;94201.13;5012279;28;20072;-66
2022/07/19 10:18:20;;;;;;;10.35;3.90;;;;;;;35.28;13.97;94194.34;5012617;28;20116;-67
2022/07/19 10:20:48;;;;;;;7.78;3.90;;;;;;;34.51;14.21;94191.50;4999738;28;20068;-68
2022/07/19 10:23:15;;;;;;;8.43;3.70;;;;;;;34.95;14.28;94184.84;5012180;28;20046;-66
2022/07/19 10:25:45;;;;;;;5.43;3.70;;;;;;;35.12;14.34;94187.88;5012677;28;20068;-66
2022/07/19 10:28:37;;;;;;;8.27;3.70;;;;;;;34.51;14.26;94182.94;5012034;28;20410;-66
2022/07/19 10:31:25;;;;;;;8.90;3.60;;;;;;;34.55;15.37;94182.53;5011694;28;20064;-65
2022/07/19 10:34:06;;;;;;;6.18;3.47;;;;;;;35.36;14.71;94169.38;5017665;28;20042;-66
2022/07/19 10:36:33;;;;;;;6.47;3.70;;;;;;;34.49;15.28;94179.91;5013764;28;20042;-69
2022/07/19 10:39:19;;;;;;;5.40;3.42;;;;;;;36.23;13.73;94174.19;5012881;28;20046;-67
2022/07/19 10:42:13;;;;;;;7.60;3.80;;;;;;;35.26;14.17;94159.91;5011549;28;21580;-66
2022/07/19 10:45:04;;;;;;;5.80;3.80;;;;;;;35.11;14.71;94166.38;5011700;28;21624;-66
2022/07/19 10:47:35;;;;;;;6.50;3.75;;;;;;;33.07;16.57;94176.84;5011966;28;20060;-69
2022/07/19 10:50:06;;;;;;;6.37;3.57;;;;;;;33.35;17.25;94186.72;5012717;28;20056;-66
2022/07/19 10:52:39;;;;;;;9.02;3.90;;;;;;;33.52;15.79;94175.59;5011808;28;20052;-66
2022/07/19 10:55:16;;;;;;;6.45;3.47;;;;;;;34.54;15.21;94164.69;5011052;28;20057;-66
2022/07/19 10:57:48;;;;;;;7.18;3.65;;;;;;;35.26;15.25;94165.63;5011262;28;20050;-65
2022/07/19 11:00:20;;;;;;;5.72;3.60;;;;;;;35.58;15.15;94158.47;5011866;28;20072;-66
2022/07/19 11:02:49;;;;;;;6.70;3.93;;;;;;;33.42;17.45;94157.53;5021287;28;20041;-66
2022/07/19 11:05:24;;;;;;;7.40;3.70;;;;;;;32.69;17.69;94162.38;5011001;28;20064;-65
2022/07/19 11:07:53;;;;;;;9.55;4.00;;;;;;;32.05;17.85;94155.91;5012021;28;20068;-68
2022/07/19 11:10:25;;;;;;;6.07;4.30;;;;;;;32.50;18.46;94151.19;5009992;28;20457;-65
2022/07/19 11:12:54;;;;;;;7.07;4.07;;;;;;;31.93;19.13;94154.63;5000524;28;20361;-68
2022/07/19 11:15:22;;;;;;;7.40;3.80;;;;;;;31.65;19.58;94156.03;5011415;28;20045;-65
2022/07/19 11:17:54;;;;;;;7.93;3.70;;;;;;;32.50;18.62;94149.16;5011588;28;20046;-66
2022/07/19 11:20:26;;;;;;;6.70;4.05;;;;;;;32.21;18.98;94151.16;5011037;28;20083;-66
2022/07/19 11:22:57;;;;;;;6.32;3.70;;;;;;;31.49;19.47;94152.25;5011474;28;20041;-65
2022/07/19 11:25:36;;;;;;;7.20;4.15;;;;;;;31.42;19.49;94150.81;5010669;28;20396;-68
2022/07/19 11:28:03;;;;;;;9.53;4.10;;;;;;;31.69;18.93;94147.19;5011570;28;20058;-67
2022/07/19 11:30:35;;;;;;;7.55;4.00;;;;;;;31.63;19.57;94142.41;5009478;28;20054;-66
2022/07/19 11:33:05;;;;;;;8.07;4.20;;;;;;;31.33;19.11;94139.94;5006967;28;20087;-66
2022/07/19 11:35:33;;;;;;;10.05;4.10;;;;;;;31.28;19.19;94145.75;5018462;28;20048;-65
2022/07/19 11:38:01;;;;;;;8.55;4.43;;;;;;;31.49;18.68;94138.06;5011649;28;20395;-65
2022/07/19 11:40:35;;;;;;;7.23;4.00;;;;;;;31.62;18.37;94142.97;5010366;28;20084;-67